Time;durP1;ratioP1;P1;durP2;ratioP2;P2;SDS_P1;SDS_P2;PMS_P1;PMS_P2;Temp;Humidity;BMP_temperature;BMP_pressure;BME280_temperature;BME280_humidity;BME280_pressure;Samples;Min_cycle;Max_cycle;Signal;HPM_P1;HPM_P2
2022/10/09 00:01:20;;;;;;;;;26.00;25.75;;;;;19.70;63.78;99048.78;4935003;28;104041;-67
2022/10/09 00:03:48;;;;;;;;;26.25;25.00;;;;;19.70;63.46;99055.09;4938734;28;102362;-68
2022/10/09 00:06:17;;;;;;;;;24.00;24.00;;;;;19.71;63.46;99061.44;4927725;28;102129;-68
2022/10/09 00:08:44;;;;;;;;;26.75;24.75;;;;;19.72;63.62;99063.94;4933906;28;102384;-68
2022/10/09 00:11:19;;;;;;;;;24.50;21.50;;;;;19.73;63.54;99070.22;4928980;28;104059;-68
2022/10/09 00:13:47;;;;;;;;;25.25;21.50;;;;;19.73;63.68;99065.56;4937212;28;102563;-68
2022/10/09 00:16:14;;;;;;;;;26.75;25.50;;;;;19.72;63.70;99066.69;4917085;28;103961;-68
2022/10/09 00:18:41;;;;;;;;;23.75;23.00;;;;;19.72;63.57;99069.41;4930605;28;103133;-68
2022/10/09 00:21:19;;;;;;;;;22.33;21.33;;;;;19.73;63.53;99070.22;4925554;28;104080;-67
2022/10/09 00:23:46;;;;;;;;;26.00;24.50;;;;;19.73;63.74;99081.19;4926335;28;104338;-68
2022/10/09 00:26:13;;;;;;;;;23.50;21.75;;;;;19.73;63.36;99071.06;4927644;28;102497;-67
2022/10/09 00:28:40;;;;;;;;;24.00;23.25;;;;;19.73;63.30;99076.53;4935394;28;103973;-68
2022/10/09 00:31:07;;;;;;;;;24.25;22.50;;;;;19.73;63.60;99081.19;4932159;28;104268;-68
2022/10/09 00:33:35;;;;;;;;;24.00;22.75;;;;;19.73;63.24;99078.47;4923301;28;102464;-68
2022/10/09 00:36:12;;;;;;;;;22.75;22.75;;;;;19.73;63.48;99082.03;4920978;28;102490;-67
2022/10/09 00:38:39;;;;;;;;;23.00;21.75;;;;;19.74;63.55;99089.19;4925547;28;102612;-68
2022/10/09 00:41:06;;;;;;;;;23.50;22.75;;;;;19.74;63.49;99093.84;4924500;28;104053;-68
2022/10/09 00:43:45;;;;;;;;;21.75;20.50;;;;;19.74;63.41;99088.34;4928777;28;102398;-68
2022/10/09 00:46:19;;;;;;;;;24.00;23.00;;;;;19.74;63.48;99093.84;4919965;28;102540;-68
2022/10/09 00:48:47;;;;;;;;;22.00;20.75;;;;;19.75;63.38;99087.28;4909998;28;107460;-68
2022/10/09 00:51:14;;;;;;;;;25.75;22.75;;;;;19.75;63.19;99092.78;4906103;28;110785;-67
2022/10/09 00:53:41;;;;;;;;;23.75;21.75;;;;;19.76;62.97;99097.19;4894044;28;103269;-68
2022/10/09 00:56:08;;;;;;;;;22.00;20.00;;;;;19.75;63.40;99095.53;4881729;28;102541;-68
2022/10/09 00:58:34;;;;;;;;;23.25;20.75;;;;;19.76;63.51;99105.41;4910145;28;102570;-67
2022/10/09 01:01:01;;;;;;;;;20.00;18.75;;;;;19.75;63.35;99104.59;4892218;28;104056;-67
2022/10/09 01:03:28;;;;;;;;;18.25;18.00;;;;;19.75;63.14;99106.50;4911412;28;102116;-68
2022/10/09 01:06:08;;;;;;;;;23.25;21.50;;;;;19.75;63.39;99107.34;4898775;28;102877;-68
2022/10/09 01:09:23;;;;;;;;;19.25;19.25;;;;;19.77;63.17;99107.09;4913869;28;103949;-68
2022/10/09 01:12:19;;;;;;;;;18.67;18.00;;;;;19.75;63.21;99101.00;4874511;28;109353;-68
2022/10/09 01:15:22;;;;;;;;;20.67;20.00;;;;;19.76;63.12;99102.69;4887471;28;103359;-67
2022/10/09 01:18:09;;;;;;;;;20.67;20.00;;;;;19.75;63.28;99104.59;4917528;28;102245;-68
2022/10/09 01:21:02;;;;;;;;;20.00;18.00;;;;;19.74;63.54;99108.41;4910841;28;102587;-68
2022/10/09 01:24:01;;;;;;;;;18.00;18.00;;;;;19.75;63.14;99106.50;4894723;28;108020;-68
2022/10/09 01:26:55;;;;;;;;;20.00;17.00;;;;;19.74;63.04;99113.06;4910339;28;103463;-67
2022/10/09 01:29:23;;;;;;;;;18.00;17.00;;;;;19.75;63.06;99111.97;4899988;28;103828;-68
2022/10/09 01:31:50;;;;;;;;;19.00;18.00;;;;;19.75;63.02;99111.97;4930307;28;102741;-68
2022/10/09 01:34:18;;;;;;;;;18.25;17.50;;;;;19.75;63.25;99115.56;4896960;28;104097;-68
2022/10/09 01:36:45;;;;;;;;;21.00;20.00;;;;;19.75;63.06;99117.47;4920427;28;102411;-67
2022/10/09 01:39:15;;;;;;;;;11.33;10.00;;;;;19.74;62.83;99113.91;4915633;28;103287;-67
2022/10/09 01:41:42;;;;;;;;;17.67;17.67;;;;;19.76;63.35;99135.59;4897385;28;103546;-67
2022/10/09 01:44:21;;;;;;;;;18.67;15.67;;;;;19.75;62.92;99131.19;4910609;28;104077;-68
2022/10/09 01:46:48;;;;;;;;;18.67;17.67;;;;;19.75;63.37;99133.94;4924807;28;102236;-68
2022/10/09 01:49:32;;;;;;;;;16.00;15.00;;;;;19.74;63.18;99144.06;4932253;28;105308;-68
2022/10/09 01:52:05;;;;;;;;;16.33;16.33;;;;;19.75;62.94;99133.94;4928479;28;102314;-68
2022/10/09 01:54:37;;;;;;;;;19.00;16.67;;;;;19.75;63.09;99140.25;4916809;28;109911;-67
2022/10/09 01:57:05;;;;;;;;;15.00;15.00;;;;;19.75;62.91;99139.44;4928712;28;102783;-67
2022/10/09 01:59:35;;;;;;;;;17.33;17.00;;;;;19.75;62.96;99144.91;4923899;28;102242;-67
2022/10/09 02:02:02;;;;;;;;;18.00;16.33;;;;;19.74;63.22;99149.56;4929448;28;103432;-67
2022/10/09 02:04:29;;;;;;;;;17.00;17.00;;;;;19.74;63.25;99154.22;4943276;28;104268;-68
2022/10/09 02:06:56;;;;;;;;;16.00;15.67;;;;;19.74;63.31;99160.53;4918719;28;102284;-68
2022/10/09 02:09:23;;;;;;;;;17.33;16.33;;;;;19.74;63.11;99159.69;4931904;28;102421;-68
2022/10/09 02:11:54;;;;;;;;;17.00;16.00;;;;;19.74;63.09;99159.69;4918369;28;102433;-68
2022/10/09 02:14:21;;;;;;;;;15.33;14.67;;;;;19.75;62.94;99164.13;4916473;28;104042;-68
2022/10/09 02:16:55;;;;;;;;;17.00;16.00;;;;;19.74;62.79;99165.19;4933724;28;103656;-68
2022/10/09 02:19:25;;;;;;;;;18.33;15.67;;;;;19.75;62.83;99172.34;4899090;28;102932;-68
2022/10/09 02:22:04;;;;;;;;;16.67;16.33;;;;;19.74;63.07;99165.19;4917836;28;102373;-68
2022/10/09 02:24:31;;;;;;;;;16.67;15.67;;;;;19.75;62.83;99180.59;4911442;28;108662;-68
2022/10/09 02:26:58;;;;;;;;;15.00;14.33;;;;;19.74;62.89;99181.66;4923603;28;102069;-68
2022/10/09 02:29:25;;;;;;;;;19.00;17.67;;;;;19.74;62.82;99187.16;4919963;28;102233;-68
2022/10/09 02:31:52;;;;;;;;;15.00;15.00;;;;;19.74;63.06;99189.88;4919145;28;103124;-68
2022/10/09 02:34:19;;;;;;;;;17.00;14.67;;;;;19.74;63.10;99195.38;4934621;28;104035;-67
2022/10/09 02:36:47;;;;;;;;;15.67;15.00;;;;;19.73;62.80;99196.44;4918917;28;102369;-67
2022/10/09 02:39:14;;;;;;;;;17.00;15.00;;;;;19.74;62.91;99192.63;4931012;28;102430;-68
2022/10/09 02:41:41;;;;;;;;;14.67;13.67;;;;;19.73;62.97;99191.81;4927349;28;104394;-68
2022/10/09 02:44:08;;;;;;;;;14.33;13.67;;;;;19.73;62.78;99196.44;4932612;28;104076;-67
2022/10/09 02:46:36;;;;;;;;;14.67;14.67;;;;;19.73;62.75;99204.69;4928859;28;102164;-67
2022/10/09 02:49:04;;;;;;;;;17.67;16.00;;;;;19.72;63.00;99211.28;4912943;28;102214;-67
2022/10/09 02:51:31;;;;;;;;;15.00;15.00;;;;;19.72;62.68;99216.75;4939281;28;102227;-67
2022/10/09 02:53:58;;;;;;;;;12.67;12.00;;;;;19.70;62.87;99208.75;4934166;28;104196;-68
2022/10/09 02:56:25;;;;;;;;;16.33;13.67;;;;;19.71;62.81;99215.94;4926775;28;103295;-67
2022/10/09 02:58:52;;;;;;;;;15.33;14.67;;;;;19.72;62.69;99216.75;4925395;28;102474;-68
2022/10/09 03:01:19;;;;;;;;;14.00;13.67;;;;;19.70;62.82;99213.41;4941847;28;102435;-68
2022/10/09 03:03:46;;;;;;;;;15.00;12.67;;;;;19.71;62.90;99215.09;4934825;28;104038;-67
2022/10/09 03:06:15;;;;;;;;;13.33;13.33;;;;;19.71;63.10;99217.84;4939736;28;102622;-68
2022/10/09 03:08:43;;;;;;;;;12.33;11.33;;;;;19.71;62.76;99215.09;4932398;28;102557;-67
2022/10/09 03:11:11;;;;;;;;;14.00;13.67;;;;;19.70;62.74;99224.38;4928892;28;102241;-67
2022/10/09 03:13:38;;;;;;;;;13.67;13.33;;;;;19.71;63.12;99223.31;4934562;28;104116;-68
2022/10/09 03:16:09;;;;;;;;;14.00;13.33;;;;;19.70;63.04;99224.38;4930751;28;102247;-67
2022/10/09 03:18:36;;;;;;;;;13.33;11.67;;;;;19.69;63.02;99229.03;4919089;28;102535;-67
2022/10/09 03:21:07;;;;;;;;;12.00;12.00;;;;;19.70;62.86;99235.38;4921691;28;102647;-67
2022/10/09 03:23:34;;;;;;;;;14.00;13.00;;;;;19.69;62.98;99234.53;4935561;28;104124;-67
2022/10/09 03:26:03;;;;;;;;;12.00;11.67;;;;;19.68;63.26;99235.59;4934458;28;102234;-66
2022/10/09 03:28:30;;;;;;;;;15.00;14.33;;;;;19.69;63.08;99233.69;4925828;28;102294;-67
2022/10/09 03:30:57;;;;;;;;;14.67;13.00;;;;;19.68;63.14;99246.56;4949965;28;102465;-67
2022/10/09 03:33:24;;;;;;;;;10.33;10.00;;;;;19.67;63.03;99238.59;4936016;28;104244;-67
2022/10/09 03:35:51;;;;;;;;;11.67;11.67;;;;;19.68;62.98;99248.50;4927440;28;102165;-67
2022/10/09 03:38:18;;;;;;;;;13.67;12.33;;;;;19.67;62.98;99255.06;4938764;28;102229;-67
2022/10/09 03:40:45;;;;;;;;;15.67;14.67;;;;;19.66;62.81;99251.50;4933002;28;103632;-67
2022/10/09 03:43:12;;;;;;;;;12.00;11.00;;;;;19.66;63.19;99253.41;4934932;28;104058;-67
2022/10/09 03:45:40;;;;;;;;;13.33;12.33;;;;;19.65;63.08;99255.31;4932824;28;103508;-67
2022/10/09 03:48:08;;;;;;;;;13.33;11.67;;;;;19.65;63.08;99260.78;4936107;28;103073;-67
2022/10/09 03:50:36;;;;;;;;;12.67;12.00;;;;;19.65;62.95;99265.44;4932246;28;103268;-67
2022/10/09 03:53:04;;;;;;;;;13.00;12.00;;;;;19.65;63.33;99259.94;4914287;28;104170;-67
2022/10/09 03:55:31;;;;;;;;;11.67;11.67;;;;;19.66;63.13;99256.97;4936680;28;102577;-66
2022/10/09 03:57:58;;;;;;;;;12.00;11.00;;;;;19.66;62.83;99267.13;4934336;28;102687;-67
2022/10/09 04:00:25;;;;;;;;;15.00;13.00;;;;;19.65;62.74;99268.19;4931326;28;102579;-67
2022/10/09 04:02:52;;;;;;;;;13.00;12.00;;;;;19.64;62.96;99267.34;4917169;28;104199;-68
2022/10/09 04:05:19;;;;;;;;;13.33;12.33;;;;;19.65;62.80;99270.94;4940667;28;102136;-68
2022/10/09 04:07:46;;;;;;;;;13.00;11.67;;;;;19.65;62.74;99270.94;4936321;28;102726;-67
2022/10/09 04:10:13;;;;;;;;;11.00;10.67;;;;;19.64;62.99;99277.50;4931941;28;102703;-67
2022/10/09 04:12:40;;;;;;;;;10.00;10.00;;;;;19.63;63.21;99279.44;4926318;28;104223;-67
2022/10/09 04:15:08;;;;;;;;;9.33;9.33;;;;;19.63;63.01;99278.59;4942571;28;102464;-67
2022/10/09 04:17:35;;;;;;;;;12.00;11.00;;;;;19.62;62.87;99282.41;4918100;28;102197;-67
2022/10/09 04:20:02;;;;;;;;;11.00;10.00;;;;;19.63;63.05;99284.06;4919287;28;103413;-66
2022/10/09 04:22:29;;;;;;;;;11.33;10.33;;;;;19.62;63.15;99282.41;4939846;28;104140;-67
2022/10/09 04:24:56;;;;;;;;;11.00;11.00;;;;;19.62;63.05;99282.41;4927768;28;102526;-67
2022/10/09 04:27:23;;;;;;;;;11.33;10.33;;;;;19.62;62.94;99283.25;4935036;28;102291;-67
2022/10/09 04:29:50;;;;;;;;;11.00;10.00;;;;;19.61;63.02;99289.78;4925405;28;102920;-68
2022/10/09 04:32:17;;;;;;;;;12.00;10.00;;;;;19.60;62.71;99283.47;4923232;28;103981;-67
2022/10/09 04:34:44;;;;;;;;;13.00;12.00;;;;;19.60;62.95;99290.88;4928385;28;102248;-68
2022/10/09 04:37:11;;;;;;;;;11.33;11.00;;;;;19.60;63.09;99288.13;4942729;28;102337;-68
2022/10/09 04:39:38;;;;;;;;;14.00;12.67;;;;;19.60;63.00;99294.44;4929683;28;102176;-67
2022/10/09 04:42:05;;;;;;;;;11.00;10.33;;;;;19.60;62.88;99301.84;4925290;28;104063;-67
2022/10/09 04:44:32;;;;;;;;;11.67;10.67;;;;;19.60;62.92;99299.09;4929945;28;102115;-68
2022/10/09 04:46:59;;;;;;;;;13.00;12.00;;;;;19.59;62.89;99295.50;4935833;28;102184;-68
2022/10/09 04:49:26;;;;;;;;;11.33;11.33;;;;;19.59;62.95;99300.16;4930351;28;102660;-68
2022/10/09 04:51:52;;;;;;;;;9.67;9.67;;;;;19.59;63.07;99306.50;4927906;28;104231;-67
2022/10/09 04:54:20;;;;;;;;;11.00;11.00;;;;;19.58;63.06;99309.50;4927917;28;102463;-68
2022/10/09 04:56:46;;;;;;;;;10.00;10.00;;;;;19.57;63.06;99308.66;4916150;28;102777;-67
2022/10/09 04:59:13;;;;;;;;;12.00;11.33;;;;;19.58;63.21;99324.06;4939802;28;102324;-67
2022/10/09 05:01:40;;;;;;;;;13.00;12.00;;;;;19.58;63.22;99315.81;4932186;28;104206;-67
2022/10/09 05:04:07;;;;;;;;;12.33;11.00;;;;;19.57;63.31;99322.38;4933130;28;102062;-67
2022/10/09 05:06:34;;;;;;;;;10.00;9.00;;;;;19.56;63.26;99339.91;4909137;28;102163;-67
2022/10/09 05:09:01;;;;;;;;;11.33;10.33;;;;;19.56;63.12;99328.09;4938275;28;103146;-67
2022/10/09 05:11:28;;;;;;;;;9.33;9.00;;;;;19.56;63.34;99334.41;4943068;28;104798;-67
2022/10/09 05:13:56;;;;;;;;;11.00;10.00;;;;;19.55;63.33;99338.22;4939466;28;102533;-67
2022/10/09 05:16:27;;;;;;;;;10.67;10.67;;;;;19.56;63.42;99344.56;4938044;28;102000;-68
2022/10/09 05:18:55;;;;;;;;;10.00;10.00;;;;;19.56;63.34;99344.56;4930825;28;102437;-67
2022/10/09 05:21:23;;;;;;;;;11.67;10.67;;;;;19.56;63.14;99344.56;4937182;28;104061;-67
2022/10/09 05:23:51;;;;;;;;;10.33;8.67;;;;;19.55;63.50;99351.09;4914621;28;102470;-67
2022/10/09 05:26:19;;;;;;;;;10.00;10.00;;;;;19.55;63.21;99343.72;4921423;28;102668;-67
2022/10/09 05:28:46;;;;;;;;;10.67;10.00;;;;;19.55;62.91;99340.13;4937634;28;102174;-67
2022/10/09 05:31:21;;;;;;;;;10.33;8.00;;;;;19.54;63.31;99342.03;4938482;28;104290;-67
2022/10/09 05:33:49;;;;;;;;;13.00;10.00;;;;;19.54;63.13;99347.53;4922192;28;102345;-67
2022/10/09 05:36:16;;;;;;;;;9.00;9.00;;;;;19.53;63.22;99354.09;4941516;28;103464;-67
2022/10/09 05:38:43;;;;;;;;;11.00;10.00;;;;;19.54;63.36;99353.00;4946168;28;102544;-67
2022/10/09 05:41:11;;;;;;;;;12.67;11.33;;;;;19.53;63.18;99359.59;4933267;28;104217;-67
2022/10/09 05:43:40;;;;;;;;;8.00;8.00;;;;;19.54;63.06;99365.91;4933212;28;103086;-68
2022/10/09 05:46:18;;;;;;;;;13.00;12.67;;;;;19.53;63.52;99367.84;4936785;28;103187;-68
2022/10/09 05:48:50;;;;;;;;;11.00;10.00;;;;;19.53;63.06;99367.84;4945887;28;103304;-68
2022/10/09 05:51:19;;;;;;;;;10.33;10.33;;;;;19.52;63.31;99363.41;4936769;28;104083;-68
2022/10/09 05:53:46;;;;;;;;;8.67;8.67;;;;;19.52;63.56;99365.31;4934790;28;102948;-67
2022/10/09 05:56:24;;;;;;;;;11.67;9.00;;;;;19.52;63.56;99370.81;4937642;28;102373;-68
2022/10/09 05:59:01;;;;;;;;;10.00;10.00;;;;;19.51;63.33;99380.94;4938179;28;107149;-68
2022/10/09 06:01:35;;;;;;;;;12.00;11.00;;;;;19.51;63.39;99375.44;4936689;28;108946;-68
2022/10/09 06:04:02;;;;;;;;;10.33;9.33;;;;;19.50;63.40;99390.22;4932362;28;102609;-68
2022/10/09 06:06:31;;;;;;;;;10.00;9.00;;;;;19.51;63.30;99393.81;4937612;28;102519;-68
2022/10/09 06:08:58;;;;;;;;;10.00;10.00;;;;;19.51;63.50;99388.31;4932385;28;102538;-68
2022/10/09 06:11:30;;;;;;;;;11.33;10.67;;;;;19.50;63.26;99395.72;4932553;28;104038;-68
2022/10/09 06:14:01;;;;;;;;;8.33;8.33;;;;;19.50;63.46;99397.63;4916030;28;102389;-68
2022/10/09 06:16:30;;;;;;;;;10.33;9.00;;;;;19.51;63.13;99396.56;4936210;28;102428;-68
2022/10/09 06:18:57;;;;;;;;;9.00;8.67;;;;;19.50;63.23;99405.84;4938668;28;102471;-67
2022/10/09 06:21:25;;;;;;;;;8.67;8.67;;;;;19.50;63.48;99403.09;4933732;28;104339;-67
2022/10/09 06:23:54;;;;;;;;;4.33;4.00;;;;;19.49;63.19;99405.03;4939857;28;102513;-67
2022/10/09 06:26:21;;;;;;;;;10.33;10.00;;;;;19.50;63.47;99411.34;4927934;28;107064;-66
2022/10/09 06:28:48;;;;;;;;;9.00;9.00;;;;;19.49;63.34;99413.28;4934655;28;104285;-66
2022/10/09 06:31:17;;;;;;;;;12.00;10.33;;;;;19.48;63.37;99411.59;4938530;28;104049;-65
2022/10/09 06:33:44;;;;;;;;;9.00;9.00;;;;;19.47;63.25;99412.66;4932010;28;102547;-66
2022/10/09 06:36:13;;;;;;;;;9.67;9.00;;;;;19.47;63.71;99418.16;4942937;28;102639;-66
2022/10/09 06:38:40;;;;;;;;;9.00;8.33;;;;;19.47;63.31;99420.91;4935360;28;102378;-66
2022/10/09 06:41:12;;;;;;;;;9.33;8.33;;;;;19.45;63.10;99423.03;4932459;28;104726;-67
2022/10/09 06:43:39;;;;;;;;;9.33;9.00;;;;;19.43;63.67;99427.94;4941441;28;102784;-67
2022/10/09 06:46:08;;;;;;;;;8.33;7.67;;;;;19.43;63.31;99436.16;4934133;28;102260;-68
2022/10/09 06:48:35;;;;;;;;;8.00;7.67;;;;;19.42;63.82;99436.34;4945877;28;102588;-69
2022/10/09 06:51:10;;;;;;;;;7.67;7.00;;;;;19.42;63.59;99448.16;4918444;28;104155;-69
2022/10/09 06:53:38;;;;;;;;;7.67;7.67;;;;;19.41;64.05;99457.47;4930547;28;102280;-68
2022/10/09 06:56:07;;;;;;;;;10.67;9.00;;;;;19.41;63.96;99462.09;4934036;28;102418;-67
2022/10/09 06:58:34;;;;;;;;;8.33;8.33;;;;;19.41;64.19;99457.47;4939946;28;102570;-68
2022/10/09 07:01:11;;;;;;;;;7.67;7.67;;;;;19.41;63.99;99460.22;4938688;28;104038;-69
2022/10/09 07:03:39;;;;;;;;;8.00;8.00;;;;;19.40;63.88;99458.56;4915763;28;102403;-69
2022/10/09 07:06:11;;;;;;;;;7.00;7.00;;;;;19.38;63.79;99460.69;4937305;28;105124;-68
2022/10/09 07:08:39;;;;;;;;;8.00;8.00;;;;;19.40;64.02;99461.31;4918317;28;102501;-69
2022/10/09 07:11:12;;;;;;;;;7.00;6.00;;;;;19.38;64.04;99460.69;4930117;28;104078;-68
2022/10/09 07:13:40;;;;;;;;;6.67;6.00;;;;;19.39;63.88;99465.09;4937508;28;102569;-71
2022/10/09 07:16:07;;;;;;;;;5.00;5.00;;;;;19.37;63.81;99469.97;4939810;28;102825;-67
2022/10/09 07:18:35;;;;;;;;;6.33;6.33;;;;;19.37;64.21;99474.63;4921676;28;102940;-67
2022/10/09 07:21:06;;;;;;;;;6.33;6.33;;;;;19.36;64.29;99471.03;4930683;28;104350;-67
2022/10/09 07:23:33;;;;;;;;;10.00;8.67;;;;;19.37;64.24;99471.88;4921512;28;103946;-67
2022/10/09 07:26:00;;;;;;;;;9.00;9.00;;;;;19.35;64.21;99477.63;4939560;28;102579;-68
2022/10/09 07:28:28;;;;;;;;;9.00;8.00;;;;;19.34;64.20;99473.22;4926783;28;103789;-69
2022/10/09 07:30:55;;;;;;;;;9.00;7.33;;;;;19.35;64.02;99479.53;4925935;28;104060;-68
2022/10/09 07:33:22;;;;;;;;;9.00;8.00;;;;;19.34;64.20;99492.41;4924576;28;102549;-69
2022/10/09 07:35:56;;;;;;;;;9.00;8.00;;;;;19.35;64.57;99491.34;4927038;28;103988;-68
2022/10/09 07:38:23;;;;;;;;;7.67;7.67;;;;;19.35;64.39;99491.34;4934682;28;102667;-68
2022/10/09 07:40:51;;;;;;;;;8.00;7.00;;;;;19.34;64.45;99492.41;4928113;28;104075;-68
2022/10/09 07:43:18;;;;;;;;;7.67;7.67;;;;;19.34;64.58;99495.16;4923924;28;102387;-68
2022/10/09 07:45:45;;;;;;;;;6.00;6.00;;;;;19.35;64.71;99493.25;4932434;28;102491;-68
2022/10/09 07:48:12;;;;;;;;;9.00;8.00;;;;;19.35;64.28;99491.34;4919548;28;102727;-68
2022/10/09 07:50:39;;;;;;;;;8.00;7.00;;;;;19.34;64.78;99497.91;4935439;28;104301;-68
2022/10/09 07:53:07;;;;;;;;;7.67;7.00;;;;;19.34;64.02;99497.06;4930768;28;102171;-71
2022/10/09 07:55:35;;;;;;;;;7.00;7.00;;;;;19.33;64.24;99496.22;4933820;28;102236;-70
2022/10/09 07:58:02;;;;;;;;;8.00;7.67;;;;;19.33;64.31;99500.84;4936515;28;102651;-73
2022/10/09 08:00:29;;;;;;;;;5.33;5.33;;;;;19.33;64.07;99506.34;4940396;28;108922;-73
2022/10/09 08:02:56;;;;;;;;;8.00;7.67;;;;;19.33;63.83;99507.19;4931250;28;102278;-74
2022/10/09 08:05:23;;;;;;;;;7.67;6.00;;;;;19.32;64.35;99502.75;4929914;28;102156;-71
2022/10/09 08:07:50;;;;;;;;;8.00;8.00;;;;;19.32;63.99;99501.94;4910686;28;102490;-71
2022/10/09 08:10:17;;;;;;;;;10.00;7.67;;;;;19.33;64.23;99498.97;4932742;28;111382;-70
2022/10/09 08:12:44;;;;;;;;;8.00;8.00;;;;;19.33;64.25;99503.59;4932574;28;103795;-71
2022/10/09 08:15:12;;;;;;;;;8.67;8.00;;;;;19.33;64.41;99498.97;4930080;28;102246;-71
2022/10/09 08:17:39;;;;;;;;;7.00;6.33;;;;;19.32;64.31;99508.25;4926544;28;102417;-70
2022/10/09 08:20:06;;;;;;;;;6.33;5.33;;;;;19.32;64.11;99508.25;4924397;28;104295;-71
2022/10/09 08:22:33;;;;;;;;;7.00;7.00;;;;;19.33;64.25;99504.44;4919633;28;102571;-71
2022/10/09 08:25:00;;;;;;;;;7.00;6.00;;;;;19.33;64.16;99504.44;4935820;28;102492;-71
2022/10/09 08:27:27;;;;;;;;;8.67;7.33;;;;;19.32;64.12;99502.75;4947379;28;102525;-71
2022/10/09 08:29:54;;;;;;;;;7.67;7.67;;;;;19.33;64.13;99509.94;4932304;28;104122;-70
2022/10/09 08:32:21;;;;;;;;;7.33;6.00;;;;;19.32;63.26;99515.63;4925008;28;102160;-59
2022/10/09 08:34:48;;;;;;;;;6.00;6.00;;;;;19.31;63.33;99512.09;4906318;28;103442;-65
2022/10/09 08:37:15;;;;;;;;;7.00;7.00;;;;;19.33;63.01;99509.09;4928358;28;102650;-64
2022/10/09 08:39:42;;;;;;;;;9.33;8.00;;;;;19.34;62.92;99506.13;4922028;28;104125;-64
2022/10/09 08:42:21;;;;;;;;;8.33;8.33;;;;;19.35;62.58;99507.78;4927133;28;102485;-65
2022/10/09 08:44:49;;;;;;;;;8.33;7.00;;;;;19.37;62.87;99511.13;4914395;28;102516;-65
2022/10/09 08:47:20;;;;;;;;;9.00;8.00;;;;;19.39;63.02;99509.00;4933728;28;102468;-62
2022/10/09 08:49:49;;;;;;;;;8.00;7.00;;;;;19.41;62.65;99511.47;4908564;28;104106;-63
2022/10/09 08:52:22;;;;;;;;;8.00;7.67;;;;;19.42;62.87;99518.66;4928475;28;103750;-67
2022/10/09 08:54:49;;;;;;;;;8.67;8.67;;;;;19.43;60.38;99521.19;4930691;28;102435;-65
2022/10/09 08:57:16;;;;;;;;;8.67;8.67;;;;;19.43;61.44;99515.72;4897130;28;102536;-64
2022/10/09 08:59:43;;;;;;;;;9.00;9.00;;;;;19.44;61.97;99525.63;4926027;28;104062;-62
2022/10/09 09:02:34;;;;;;;;;9.33;9.33;;;;;19.45;62.30;99520.97;4907862;28;102654;-60
2022/10/09 09:05:18;;;;;;;;;9.00;8.00;;;;;19.46;62.41;99526.19;4892123;28;102786;-67
2022/10/09 09:07:57;;;;;;;;;13.33;9.67;;;;;19.48;62.04;99529.56;4920437;28;102521;-62
2022/10/09 09:10:41;;;;;;;;;10.00;8.67;;;;;19.49;62.09;99530.41;4937699;28;104307;-63
2022/10/09 09:13:37;;;;;;;;;9.67;9.00;;;;;19.50;62.09;99530.13;4932067;28;102272;-63
2022/10/09 09:16:13;;;;;;;;;10.67;8.00;;;;;19.49;62.25;99536.72;4917987;28;102410;-63
2022/10/09 09:19:01;;;;;;;;;8.00;7.67;;;;;19.49;62.18;99531.22;4934612;28;102144;-63
2022/10/09 09:21:36;;;;;;;;;10.00;9.00;;;;;19.49;62.46;99525.75;4909847;28;111850;-63
2022/10/09 09:24:09;;;;;;;;;8.33;7.33;;;;;19.48;62.68;99526.81;4928461;28;102234;-62
2022/10/09 09:26:36;;;;;;;;;10.00;8.00;;;;;19.49;62.80;99528.50;4913465;28;102365;-63
2022/10/09 09:29:03;;;;;;;;;9.00;8.67;;;;;19.48;62.94;99524.06;4921577;28;102240;-62
2022/10/09 09:31:35;;;;;;;;;8.67;8.00;;;;;19.46;62.76;99523.47;4921534;28;104238;-63
2022/10/09 09:34:33;;;;;;;;;9.00;9.00;;;;;19.47;63.23;99513.31;4922780;28;102064;-63
2022/10/09 09:37:00;;;;;;;;;7.00;6.33;;;;;19.47;63.31;99516.91;4933255;28;102511;-63
2022/10/09 09:39:31;;;;;;;;;9.00;9.00;;;;;19.46;63.25;99509.75;4917133;28;102577;-63
2022/10/09 09:42:18;;;;;;;;;7.33;6.33;;;;;19.46;63.53;99520.72;4904332;28;107386;-63
2022/10/09 09:44:48;;;;;;;;;9.00;8.33;;;;;19.45;63.66;99508.06;4952219;28;102245;-63
2022/10/09 09:47:24;;;;;;;;;11.00;9.00;;;;;19.45;63.51;99516.28;4943442;28;102252;-63
2022/10/09 09:49:56;;;;;;;;;9.00;8.67;;;;;19.45;63.61;99512.75;4941886;28;102396;-63
2022/10/09 09:52:23;;;;;;;;;10.33;8.00;;;;;19.44;63.46;99511.91;4932352;28;104083;-63
2022/10/09 09:54:50;;;;;;;;;10.00;7.00;;;;;19.44;63.80;99517.38;4919388;28;102509;-63
2022/10/09 09:57:26;;;;;;;;;6.33;6.00;;;;;19.45;63.69;99516.28;4933620;28;104401;-63
2022/10/09 09:59:53;;;;;;;;;8.00;8.00;;;;;19.43;63.65;99510.22;4917438;28;102248;-63
2022/10/09 10:02:21;;;;;;;;;7.00;7.00;;;;;19.44;63.79;99517.38;4916912;28;104061;-63
2022/10/09 10:04:53;;;;;;;;;8.00;7.67;;;;;19.44;63.93;99516.53;4923154;28;102451;-63
2022/10/09 10:07:36;;;;;;;;;6.67;6.67;;;;;19.43;63.87;99515.72;4923975;28;102617;-64
2022/10/09 10:10:15;;;;;;;;;9.00;7.33;;;;;19.43;63.73;99518.44;4941190;28;102684;-63
2022/10/09 10:12:57;;;;;;;;;8.67;7.67;;;;;19.43;63.92;99518.44;4955113;28;104223;-63
2022/10/09 10:15:31;;;;;;;;;9.00;8.33;;;;;19.42;63.78;99514.00;4947342;28;102668;-63
2022/10/09 10:17:59;;;;;;;;;6.67;6.00;;;;;19.44;64.09;99520.13;4927532;28;102574;-63
2022/10/09 10:20:27;;;;;;;;;6.67;5.33;;;;;19.42;64.01;99514.00;4940420;28;102650;-63
2022/10/09 10:22:54;;;;;;;;;8.00;7.00;;;;;19.43;64.03;99526.69;4908768;28;103795;-63
2022/10/09 10:25:25;;;;;;;;;7.00;6.33;;;;;19.43;63.83;99521.19;4914497;28;102250;-63
2022/10/09 10:27:56;;;;;;;;;8.00;7.00;;;;;19.41;63.75;99509.56;4939174;28;102256;-63
2022/10/09 10:30:23;;;;;;;;;9.00;7.33;;;;;19.42;64.16;99513.16;4905373;28;102274;-63
2022/10/09 10:32:59;;;;;;;;;6.67;6.00;;;;;19.42;63.87;99522.22;4918633;28;104049;-63
2022/10/09 10:35:31;;;;;;;;;8.00;7.00;;;;;19.42;62.24;99510.41;4934745;28;102630;-67
2022/10/09 10:37:58;;;;;;;;;7.00;6.67;;;;;19.40;61.71;99510.66;4921759;28;102993;-67
2022/10/09 10:40:30;;;;;;;;;7.00;7.00;;;;;19.39;61.92;99509.00;4937904;28;102606;-66
2022/10/09 10:43:00;;;;;;;;;7.33;7.00;;;;;19.39;61.83;99509.00;4934480;28;104258;-66
2022/10/09 10:45:34;;;;;;;;;8.00;8.00;;;;;19.39;62.15;99511.75;4928308;28;102560;-67
2022/10/09 10:48:01;;;;;;;;;6.33;6.00;;;;;19.40;61.90;99510.66;4926061;28;102494;-66
2022/10/09 10:50:35;;;;;;;;;9.67;8.00;;;;;19.41;62.20;99515.06;4910105;28;102188;-66
2022/10/09 10:53:36;;;;;;;;;8.00;7.00;;;;;19.42;62.23;99513.16;4932966;28;109015;-66
2022/10/09 10:56:11;;;;;;;;;6.67;5.67;;;;;19.43;62.21;99520.31;4932923;28;102721;-65
2022/10/09 10:58:58;;;;;;;;;7.00;6.00;;;;;19.42;62.37;99514.00;4918942;28;104168;-65
2022/10/09 11:01:51;;;;;;;;;7.33;6.67;;;;;19.41;62.64;99512.31;4935927;28;102600;-66
2022/10/09 11:04:32;;;;;;;;;8.33;7.33;;;;;19.41;62.63;99517.81;4921971;28;108305;-66
2022/10/09 11:07:12;;;;;;;;;6.33;6.33;;;;;19.41;63.40;99516.97;4926015;28;102476;-66
2022/10/09 11:10:12;;;;;;;;;7.00;6.00;;;;;19.40;62.94;99510.66;4902037;28;102906;-66
2022/10/09 11:12:46;;;;;;;;;6.00;6.00;;;;;19.40;62.67;99513.41;4934229;28;102279;-71
2022/10/09 11:15:33;;;;;;;;;5.00;5.00;;;;;19.40;62.40;99521.66;4897599;28;104200;-71
2022/10/09 11:18:05;;;;;;;;;6.33;6.33;;;;;19.41;62.15;99517.81;4901552;28;102731;-71
2022/10/09 11:20:54;;;;;;;;;6.00;6.00;;;;;19.42;61.22;99519.47;4923247;28;102369;-72
2022/10/09 11:23:35;;;;;;;;;7.33;7.00;;;;;19.42;61.06;99519.47;4905775;28;102683;-71
2022/10/09 11:26:02;;;;;;;;;7.00;6.00;;;;;19.41;60.57;99511.47;4927048;28;108922;-72
2022/10/09 11:28:34;;;;;;;;;8.00;7.67;;;;;19.42;60.69;99510.41;4932304;28;103564;-72
2022/10/09 11:31:18;;;;;;;;;9.33;7.67;;;;;19.42;60.53;99514.00;4913568;28;102544;-72
2022/10/09 11:33:50;;;;;;;;;7.33;7.33;;;;;19.43;60.65;99512.97;4908805;28;102996;-72